Terminal Aerodrome Forecast
Issued by NWS

Home | Current Version | Previous Version | Text Only | Print | Product List | Glossary On
Versions: 1 2 3 4 5 6 7 8 9 10 11 12 13 14 15 16 17 18 19 20 21 22 23
000
FTUS46 KEKA 281321 AAA
TAFCEC
TAF AMD
KCEC 281321Z 2813/0112 10003KT P6SM VCSH SCT025 BKN050
     FM281800 36009KT P6SM FEW025 BKN100
     FM282000 34016G24KT P6SM FEW100 SCT250
     FM010300 36011KT P6SM SKC=

USA.gov is the U.S. government's official web portal to all federal, state and local government web resources and services.